Terminal Aerodrome Forecast
Issued by NWS Buffalo, NY

Home | Current Version | Previous Version | Text Only | Print | Product List | Glossary On
Versions: 1 2 3 4 5 6 7 8 9 10 11 12 13 14 15 16 17 18 19 20 21 22 23 24 25 26 27
000
FTUS41 KBUF 251429 AAC
TAFBUF
TAF AMD
KBUF 251429Z 2514/2612 23016G24KT 3SM -RA OVC008
     FM251500 24020G28KT P6SM -RA OVC015
     FM251700 24020G28KT P6SM OVC040
     FM252000 24025G40KT P6SM OVC040
     FM260100 25020G35KT 3SM -SHSN OVC025
     FM260400 26017G29KT P6SM OVC040=

USA.gov is the U.S. government's official web portal to all federal, state and local government web resources and services.